createdAt,value
2017-09-12T00:00:36.244Z,97950.98
2017-09-12T00:03:02.474Z,97965.48
2017-09-12T00:05:28.710Z,97948.39
2017-09-12T00:07:54.947Z,97954.49
2017-09-12T00:10:21.168Z,97964.02
2017-09-12T00:12:47.396Z,97953.47
2017-09-12T00:15:13.633Z,97969.01
2017-09-12T00:17:39.859Z,97958.33
2017-09-12T00:20:06.093Z,97966.64
2017-09-12T00:22:32.326Z,97967.23
2017-09-12T00:24:58.544Z,97954.39
2017-09-12T00:27:24.779Z,97948.80
2017-09-12T00:29:51.010Z,97949.36
2017-09-12T00:32:17.229Z,97944.06
2017-09-12T00:34:43.457Z,97947.98
2017-09-12T00:37:09.696Z,97956.18
2017-09-12T00:39:35.929Z,97955.33
2017-09-12T00:42:02.142Z,97951.18
2017-09-12T00:44:28.377Z,97951.46
2017-09-12T00:46:54.613Z,97948.78
2017-09-12T00:49:20.856Z,97941.80
2017-09-12T00:51:47.092Z,97941.71
2017-09-12T00:54:13.317Z,97952.05
2017-09-12T00:56:39.536Z,97945.73
2017-09-12T00:59:05.769Z,97955.06
2017-09-12T01:01:31.981Z,97956.71
2017-09-12T01:03:58.231Z,97968.39
2017-09-12T01:06:24.482Z,97966.52
2017-09-12T01:08:50.683Z,97967.33
2017-09-12T01:11:16.910Z,97963.58
2017-09-12T01:13:43.147Z,97962.44
2017-09-12T01:16:09.377Z,97971.98
2017-09-12T01:18:35.602Z,97956.67
2017-09-12T01:21:01.831Z,97946.75
2017-09-12T01:23:28.063Z,97938.99
2017-09-12T01:25:54.286Z,97930.56
2017-09-12T01:28:20.520Z,97923.05
2017-09-12T01:30:46.758Z,97917.65
2017-09-12T01:33:12.974Z,97916.91
2017-09-12T01:35:39.211Z,97916.42
2017-09-12T01:38:05.446Z,97907.38
2017-09-12T01:40:31.674Z,97885.13
2017-09-12T01:42:57.895Z,97856.51
2017-09-12T01:45:24.137Z,97868.44
2017-09-12T01:47:50.365Z,97852.36
2017-09-12T01:50:16.608Z,97863.87
2017-09-12T01:52:42.815Z,97863.86
2017-09-12T01:55:09.041Z,97878.00
2017-09-12T01:57:35.275Z,97836.71
2017-09-12T02:00:01.511Z,97840.77
2017-09-12T02:02:27.726Z,97842.22
2017-09-12T02:04:53.956Z,97834.16
2017-09-12T02:07:20.198Z,97834.03
2017-09-12T02:09:46.428Z,97851.83
2017-09-12T02:12:12.650Z,97873.64
2017-09-12T02:14:38.878Z,97821.35
2017-09-12T02:17:05.104Z,97853.09
2017-09-12T02:19:31.340Z,97857.97
2017-09-12T02:21:57.570Z,97853.84
2017-09-12T02:24:23.798Z,97844.52
2017-09-12T02:26:50.041Z,97844.20
2017-09-12T02:29:16.251Z,97844.50
2017-09-12T02:31:42.489Z,97855.96
2017-09-12T02:34:08.716Z,97860.75
2017-09-12T02:36:34.954Z,97848.02
2017-09-12T02:39:01.179Z,97856.72
2017-09-12T02:41:27.418Z,97858.16
2017-09-12T02:43:53.630Z,97880.56
2017-09-12T02:46:19.865Z,97871.16
2017-09-12T02:48:46.101Z,97871.50
2017-09-12T02:51:12.336Z,97866.69
2017-09-12T02:53:38.552Z,97867.73
2017-09-12T02:56:04.790Z,97866.76
2017-09-12T02:58:31.023Z,97860.45
2017-09-12T03:00:57.243Z,97870.91
2017-09-12T03:03:23.461Z,97859.06
2017-09-12T03:05:49.699Z,97874.77
2017-09-12T03:08:15.922Z,97882.53
2017-09-12T03:10:42.168Z,97874.56
2017-09-12T03:13:08.384Z,97863.19
2017-09-12T03:15:34.624Z,97858.58
2017-09-12T03:18:00.844Z,97854.62
2017-09-12T03:20:27.086Z,97851.72
2017-09-12T03:22:53.318Z,97873.54
2017-09-12T03:25:19.538Z,97854.31
2017-09-12T03:27:45.783Z,97850.47
2017-09-12T03:30:12.001Z,97859.92
2017-09-12T03:32:38.235Z,97867.63
2017-09-12T03:35:04.461Z,97886.41
2017-09-12T03:37:30.692Z,97861.73
2017-09-12T03:39:56.915Z,97855.72
2017-09-12T03:42:23.152Z,97873.84
2017-09-12T03:44:49.386Z,97856.84
2017-09-12T03:47:15.610Z,97872.15
2017-09-12T03:49:41.845Z,97869.55
2017-09-12T03:52:08.080Z,97884.12
2017-09-12T03:54:34.309Z,97864.06
2017-09-12T03:57:00.525Z,97878.35
2017-09-12T03:59:26.759Z,97881.48
2017-09-12T04:01:53.002Z,97879.45
2017-09-12T04:04:19.221Z,97892.83
2017-09-12T04:06:45.457Z,97900.94
2017-09-12T04:09:11.682Z,97918.94
2017-09-12T04:11:37.914Z,97916.94
2017-09-12T04:14:04.130Z,97923.27
2017-09-12T04:16:30.367Z,97916.60
2017-09-12T04:18:56.608Z,97914.08
2017-09-12T04:21:22.828Z,97906.07
2017-09-12T04:23:49.059Z,97916.52
2017-09-12T04:26:15.302Z,97914.88
2017-09-12T04:28:41.521Z,97912.82
2017-09-12T04:31:07.749Z,97898.17
2017-09-12T04:33:33.973Z,97909.20
2017-09-12T04:36:00.206Z,97906.09
2017-09-12T04:38:26.439Z,97898.06
2017-09-12T04:40:52.659Z,97908.23
2017-09-12T04:43:18.895Z,97918.70
2017-09-12T04:45:45.130Z,97930.30
2017-09-12T04:48:11.345Z,97922.34
2017-09-12T04:50:37.575Z,97913.49
2017-09-12T04:53:03.807Z,97895.74
2017-09-12T04:55:30.040Z,97912.97
2017-09-12T04:57:56.266Z,97903.96
2017-09-12T05:00:22.500Z,97891.22
2017-09-12T05:02:48.729Z,97896.52
2017-09-12T05:05:14.958Z,97902.94
2017-09-12T05:07:41.193Z,97910.57
2017-09-12T05:10:07.419Z,97905.70
2017-09-12T05:12:33.641Z,97903.31
2017-09-12T05:14:59.871Z,97902.93
2017-09-12T05:17:26.095Z,97903.70
2017-09-12T05:19:52.346Z,97902.23
2017-09-12T05:22:18.573Z,97898.78
2017-09-12T05:24:44.814Z,97900.56
2017-09-12T05:27:11.017Z,97900.84
2017-09-12T05:29:37.257Z,97915.22
2017-09-12T05:32:03.487Z,97928.37
2017-09-12T05:34:29.714Z,97926.02
2017-09-12T05:36:55.951Z,97927.53
2017-09-12T05:39:22.183Z,97921.94
2017-09-12T05:41:48.416Z,97910.91
2017-09-12T05:44:14.641Z,97913.83
2017-09-12T05:46:40.860Z,97919.89
2017-09-12T05:49:07.093Z,97922.06
2017-09-12T05:51:33.315Z,97922.58
2017-09-12T05:53:59.566Z,97921.33
2017-09-12T05:56:25.776Z,97910.45
2017-09-12T05:58:52.005Z,97913.78
2017-09-12T06:01:18.289Z,97919.23
2017-09-12T06:03:44.461Z,97915.63
2017-09-12T06:06:10.697Z,97916.05
2017-09-12T06:08:37.057Z,97905.95
2017-09-12T06:11:10.266Z,97913.89
2017-09-12T06:13:36.773Z,97912.94
2017-09-12T06:16:02.991Z,97914.52
2017-09-12T06:18:29.220Z,97926.84
2017-09-12T06:20:55.462Z,97925.63
2017-09-12T06:23:21.715Z,97936.88
2017-09-12T06:25:47.914Z,97932.66
2017-09-12T06:28:14.146Z,97943.83
2017-09-12T06:30:40.396Z,97956.59
2017-09-12T06:33:06.617Z,97954.54
2017-09-12T06:35:32.825Z,97952.11
2017-09-12T06:37:59.072Z,97965.27
2017-09-12T06:40:31.753Z,97956.53
2017-09-12T06:42:57.964Z,97963.58
2017-09-12T06:45:24.203Z,97966.80
2017-09-12T06:47:50.445Z,97968.76
2017-09-12T06:50:16.660Z,97980.66
2017-09-12T06:52:42.893Z,97975.81
2017-09-12T06:55:09.131Z,97980.31
2017-09-12T06:57:35.343Z,97973.11
2017-09-12T07:00:01.600Z,97982.05
2017-09-12T07:02:27.804Z,97984.84
2017-09-12T07:04:54.049Z,97978.63
2017-09-12T07:07:20.210Z,97980.23
2017-09-12T07:09:46.403Z,97984.83
2017-09-12T07:12:12.639Z,97989.58
2017-09-12T07:14:38.777Z,97987.94
2017-09-12T07:17:04.986Z,97991.31
2017-09-12T07:19:31.215Z,97984.25
2017-09-12T07:21:57.370Z,97989.45
2017-09-12T07:24:23.530Z,97992.61
2017-09-12T07:26:49.676Z,97994.70
2017-09-12T07:29:15.829Z,98004.11
2017-09-12T07:31:41.973Z,98006.13
2017-09-12T07:34:08.124Z,98007.66
2017-09-12T07:36:34.268Z,98016.62
2017-09-12T07:39:00.420Z,98024.64
2017-09-12T07:41:26.567Z,98020.83
2017-09-12T07:43:53.415Z,98029.66
2017-09-12T07:46:19.548Z,98033.02
2017-09-12T07:48:45.706Z,98032.33
2017-09-12T07:51:11.864Z,98028.91
2017-09-12T07:53:38.008Z,98032.67
2017-09-12T07:56:04.164Z,98034.13
2017-09-12T07:58:30.317Z,98039.21
2017-09-12T08:00:56.468Z,98036.34
2017-09-12T08:03:22.610Z,98038.81
2017-09-12T08:05:48.753Z,98053.20
2017-09-12T08:08:14.911Z,98060.98
2017-09-12T08:10:41.049Z,98055.20
2017-09-12T08:13:07.197Z,98054.45
2017-09-12T08:15:33.349Z,98044.81
2017-09-12T08:17:59.521Z,98054.22
2017-09-12T08:20:25.684Z,98064.19
2017-09-12T08:22:51.830Z,98064.17
2017-09-12T08:25:17.981Z,98061.86
2017-09-12T08:27:44.134Z,98067.05
2017-09-12T08:30:10.292Z,98078.61
2017-09-12T08:32:36.431Z,98068.67
2017-09-12T08:35:02.583Z,98072.64
2017-09-12T08:37:28.753Z,98067.77
2017-09-12T08:39:54.916Z,98075.89
2017-09-12T08:42:21.078Z,98079.53
2017-09-12T08:44:47.234Z,98091.75
2017-09-12T08:47:13.391Z,98091.47
2017-09-12T08:49:39.530Z,98090.34
2017-09-12T08:52:05.674Z,98080.39
2017-09-12T08:54:31.832Z,98075.64
2017-09-12T08:56:57.967Z,98077.41
2017-09-12T08:59:24.122Z,98075.73
2017-09-12T09:01:50.280Z,98079.34
2017-09-12T09:04:16.539Z,98083.72
2017-09-12T09:06:42.772Z,98080.36
2017-09-12T09:09:09.000Z,98072.34
2017-09-12T09:11:35.240Z,98078.11
2017-09-12T09:14:01.509Z,98081.04
2017-09-12T09:16:27.700Z,98080.34
2017-09-12T09:18:53.936Z,98088.81
2017-09-12T09:21:20.181Z,98084.41
2017-09-12T09:23:46.370Z,98078.45
2017-09-12T09:26:12.623Z,98084.47
2017-09-12T09:28:38.803Z,98079.38
2017-09-12T09:31:05.058Z,98085.72
2017-09-12T09:33:31.301Z,98084.43
2017-09-12T09:35:57.528Z,98078.43
2017-09-12T09:38:23.678Z,98078.78
2017-09-12T09:40:49.892Z,98086.09
2017-09-12T09:43:16.094Z,98084.83
2017-09-12T09:45:42.354Z,98088.17
2017-09-12T09:48:08.590Z,98094.48
2017-09-12T09:50:34.755Z,98095.13
2017-09-12T09:53:00.933Z,98088.92
2017-09-12T09:55:27.172Z,98087.47
2017-09-12T09:57:53.391Z,98099.05
2017-09-12T10:00:19.612Z,98101.16
2017-09-12T10:02:45.849Z,98087.13
2017-09-12T10:05:12.082Z,98105.38
2017-09-12T10:07:38.300Z,98104.67
2017-09-12T10:10:04.548Z,98111.14
2017-09-12T10:12:30.759Z,98122.42
2017-09-12T10:14:56.991Z,98119.35
2017-09-12T10:17:23.214Z,98120.08
2017-09-12T10:19:49.469Z,98123.24
2017-09-12T10:22:15.678Z,98129.83
2017-09-12T10:24:41.922Z,98134.94
2017-09-12T10:27:08.139Z,98136.42
2017-09-12T10:29:34.367Z,98139.59
2017-09-12T10:32:00.603Z,98129.97
2017-09-12T10:34:26.844Z,98136.14
2017-09-12T10:36:53.068Z,98140.42
2017-09-12T10:39:19.300Z,98150.19
2017-09-12T10:41:46.537Z,98157.16
2017-09-12T10:44:12.782Z,98156.25
2017-09-12T10:46:39.006Z,98161.02
2017-09-12T10:49:05.255Z,98163.17
2017-09-12T10:51:31.479Z,98163.77
2017-09-12T10:53:57.713Z,98162.69
2017-09-12T10:56:23.911Z,98168.48
2017-09-12T10:58:50.165Z,98175.33
2017-09-12T11:01:16.389Z,98174.97
2017-09-12T11:03:42.617Z,98168.34
2017-09-12T11:06:08.854Z,98184.83
2017-09-12T11:08:35.098Z,98168.17
2017-09-12T11:11:01.296Z,98170.33
2017-09-12T11:13:27.532Z,98173.25
2017-09-12T11:15:53.756Z,98179.42
2017-09-12T11:18:19.978Z,98176.09
2017-09-12T11:20:46.211Z,98174.56
2017-09-12T11:23:12.478Z,98168.92
2017-09-12T11:25:38.690Z,98163.11
2017-09-12T11:28:04.910Z,98171.49
2017-09-12T11:30:31.135Z,98171.44
2017-09-12T11:32:57.374Z,98169.31
2017-09-12T11:35:23.605Z,98176.14
2017-09-12T11:37:49.825Z,98176.14
2017-09-12T11:40:16.054Z,98175.46
2017-09-12T11:42:42.284Z,98172.64
2017-09-12T11:45:08.510Z,98176.53
2017-09-12T11:47:34.748Z,98172.09
2017-09-12T11:50:00.975Z,98175.20
2017-09-12T11:52:27.194Z,98169.18
2017-09-12T11:54:53.430Z,98171.50
2017-09-12T11:57:19.660Z,98177.81
2017-09-12T11:59:45.883Z,98177.27
2017-09-12T12:02:12.183Z,98191.97
2017-09-12T12:04:38.329Z,98190.67
2017-09-12T12:07:04.599Z,98195.47
2017-09-12T12:09:30.831Z,98193.83
2017-09-12T12:11:57.011Z,98208.67
2017-09-12T12:14:23.278Z,98209.22
2017-09-12T12:16:49.510Z,98203.66
2017-09-12T12:19:15.737Z,98193.91
2017-09-12T12:21:41.923Z,98189.16
2017-09-12T12:24:08.098Z,98186.76
2017-09-12T12:26:34.315Z,98193.06
2017-09-12T12:29:00.554Z,98186.95
2017-09-12T12:31:26.797Z,98192.13
2017-09-12T12:33:53.030Z,98191.93
2017-09-12T12:36:19.243Z,98182.94
2017-09-12T12:38:45.471Z,98196.02
2017-09-12T12:41:11.699Z,98195.19
2017-09-12T12:43:37.935Z,98195.09
2017-09-12T12:46:04.167Z,98193.20
2017-09-12T12:48:30.377Z,98197.69
2017-09-12T12:50:56.619Z,98203.11
2017-09-12T12:53:22.845Z,98212.78
2017-09-12T12:55:49.081Z,98211.95
2017-09-12T12:58:15.298Z,98218.02
2017-09-12T13:00:41.540Z,98210.92
2017-09-12T13:03:07.772Z,98231.16
2017-09-12T13:05:33.992Z,98228.03
2017-09-12T13:08:00.147Z,98231.32
2017-09-12T13:10:26.355Z,98223.61
2017-09-12T13:12:52.513Z,98206.88
2017-09-12T13:15:18.714Z,98212.98
2017-09-12T13:17:44.937Z,98216.03
2017-09-12T13:20:11.184Z,98224.07
2017-09-12T13:22:37.405Z,98228.73
2017-09-12T13:25:03.633Z,98226.30
2017-09-12T13:27:29.861Z,98226.48
2017-09-12T13:29:56.090Z,98235.61
2017-09-12T13:32:22.330Z,98242.17
2017-09-12T13:34:48.557Z,98251.52
2017-09-12T13:37:14.786Z,98255.13
2017-09-12T13:39:41.010Z,98257.99
2017-09-12T13:42:07.248Z,98270.55
2017-09-12T13:44:33.473Z,98265.63
2017-09-12T13:46:59.687Z,98278.00
2017-09-12T13:49:25.911Z,98278.17
2017-09-12T13:51:52.155Z,98277.33
2017-09-12T13:54:18.387Z,98273.73
2017-09-12T13:56:44.615Z,98274.56
2017-09-12T13:59:10.871Z,98279.06
2017-09-12T14:01:37.066Z,98279.76
2017-09-12T14:04:03.313Z,98278.52
2017-09-12T14:06:29.546Z,98285.98
2017-09-12T14:08:55.748Z,98292.52
2017-09-12T14:11:21.987Z,98288.53
2017-09-12T14:13:48.204Z,98286.82
2017-09-12T14:16:14.447Z,98284.16
2017-09-12T14:18:40.673Z,98290.12
2017-09-12T14:21:06.832Z,98284.72
2017-09-12T14:23:33.037Z,98287.34
2017-09-12T14:25:59.276Z,98291.50
2017-09-12T14:28:25.513Z,98291.45
2017-09-12T14:30:51.739Z,98294.67
2017-09-12T14:33:17.966Z,98302.13
2017-09-12T14:35:44.173Z,98301.90
2017-09-12T14:38:10.386Z,98303.48
2017-09-12T14:40:36.650Z,98294.63
2017-09-12T14:43:02.886Z,98305.94
2017-09-12T14:45:29.119Z,98308.47
2017-09-12T14:47:55.323Z,98303.11
2017-09-12T14:50:21.576Z,98304.44
2017-09-12T14:52:47.789Z,98318.30
2017-09-12T14:55:14.027Z,98311.31
2017-09-12T14:57:40.255Z,98316.11
2017-09-12T15:00:06.483Z,98315.52
2017-09-12T15:02:32.735Z,98320.30
2017-09-12T15:04:58.933Z,98316.88
2017-09-12T15:07:25.183Z,98322.25
2017-09-12T15:09:51.405Z,98327.39
2017-09-12T15:12:17.641Z,98320.34
2017-09-12T15:14:43.864Z,98328.17
2017-09-12T15:17:10.106Z,98327.95
2017-09-12T15:19:36.339Z,98325.94
2017-09-12T15:22:02.559Z,98329.80
2017-09-12T15:24:28.786Z,98342.05
2017-09-12T15:26:55.017Z,98332.69
2017-09-12T15:29:21.252Z,98340.25
2017-09-12T15:31:47.476Z,98346.38
2017-09-12T15:34:13.710Z,98362.39
2017-09-12T15:36:39.989Z,98362.86
2017-09-12T15:39:06.175Z,98361.69
2017-09-12T15:41:32.436Z,98363.56
2017-09-12T15:43:58.621Z,98368.18
2017-09-12T15:46:24.853Z,98372.58
2017-09-12T15:48:51.083Z,98371.59
2017-09-12T15:51:17.354Z,98379.33
2017-09-12T15:53:43.563Z,98379.18
2017-09-12T15:56:09.744Z,98386.03
2017-09-12T15:58:36.004Z,98388.11
2017-09-12T16:01:02.250Z,98393.19
2017-09-12T16:03:28.445Z,98395.63
2017-09-12T16:05:54.688Z,98400.63
2017-09-12T16:08:20.911Z,98403.25
2017-09-12T16:10:47.151Z,98399.66
2017-09-12T16:13:13.394Z,98401.17
2017-09-12T16:15:39.617Z,98401.42
2017-09-12T16:18:05.832Z,98415.28
2017-09-12T16:20:32.052Z,98419.63
2017-09-12T16:22:58.297Z,98419.03
2017-09-12T16:25:24.512Z,98420.64
2017-09-12T16:27:50.779Z,98425.34
2017-09-12T16:30:16.994Z,98429.86
2017-09-12T16:32:43.206Z,98429.53
2017-09-12T16:35:09.433Z,98432.84
2017-09-12T16:37:35.681Z,98430.56
2017-09-12T16:40:01.848Z,98435.22
2017-09-12T16:42:28.038Z,98440.11
2017-09-12T16:44:54.255Z,98443.17
2017-09-12T16:47:20.477Z,98445.13
2017-09-12T16:49:46.725Z,98454.76
2017-09-12T16:52:12.941Z,98457.52
2017-09-12T16:54:39.173Z,98459.09
2017-09-12T16:57:05.407Z,98457.28
2017-09-12T16:59:31.645Z,98463.39
2017-09-12T17:01:57.869Z,98471.47
2017-09-12T17:04:24.107Z,98481.94
2017-09-12T17:06:50.331Z,98489.19
2017-09-12T17:09:16.554Z,98488.74
2017-09-12T17:11:42.790Z,98491.35
2017-09-12T17:14:09.012Z,98496.29
2017-09-12T17:16:35.278Z,98504.12
2017-09-12T17:19:01.503Z,98507.03
2017-09-12T17:21:27.694Z,98520.94
2017-09-12T17:23:54.049Z,98518.39
2017-09-12T17:26:20.391Z,98521.66
2017-09-12T17:28:46.617Z,98523.18
2017-09-12T17:31:12.841Z,98525.45
2017-09-12T17:33:39.053Z,98527.87
2017-09-12T17:36:05.290Z,98527.48
2017-09-12T17:38:31.506Z,98538.16
2017-09-12T17:40:57.739Z,98541.83
2017-09-12T17:43:23.976Z,98534.20
2017-09-12T17:45:50.225Z,98547.77
2017-09-12T17:48:16.429Z,98549.75
2017-09-12T17:50:42.698Z,98564.91
2017-09-12T17:53:08.909Z,98564.70
2017-09-12T17:55:35.139Z,98566.50
2017-09-12T17:58:01.354Z,98572.08
2017-09-12T18:00:28.629Z,98578.26
2017-09-12T18:02:54.836Z,98582.23
2017-09-12T18:05:21.120Z,98585.43
2017-09-12T18:07:47.295Z,98586.38
2017-09-12T18:10:13.542Z,98590.85
2017-09-12T18:12:39.749Z,98593.91
2017-09-12T18:15:06.011Z,98601.23
2017-09-12T18:17:32.229Z,98603.97
2017-09-12T18:19:58.461Z,98605.38
2017-09-12T18:22:24.672Z,98608.86
2017-09-12T18:24:50.927Z,98610.89
2017-09-12T18:27:17.144Z,98605.86
2017-09-12T18:29:43.365Z,98600.42
2017-09-12T18:32:09.598Z,98596.39
2017-09-12T18:34:35.824Z,98599.14
2017-09-12T18:37:02.051Z,98597.14
2017-09-12T18:39:28.296Z,98597.92
2017-09-12T18:41:54.515Z,98612.89
2017-09-12T18:44:20.763Z,98612.60
2017-09-12T18:46:46.995Z,98625.77
2017-09-12T18:49:13.203Z,98627.22
2017-09-12T18:51:39.447Z,98636.39
2017-09-12T18:54:05.663Z,98635.73
2017-09-12T18:56:31.899Z,98633.78
2017-09-12T18:58:58.121Z,98638.45
2017-09-12T19:01:24.385Z,98640.28
2017-09-12T19:03:50.613Z,98643.11
2017-09-12T19:06:16.831Z,98648.58
2017-09-12T19:08:43.049Z,98655.12
2017-09-12T19:11:09.272Z,98650.61
2017-09-12T19:13:35.514Z,98640.84
2017-09-12T19:16:01.762Z,98644.84
2017-09-12T19:18:27.964Z,98646.13
2017-09-12T19:20:54.179Z,98646.05
2017-09-12T19:23:20.422Z,98648.34
2017-09-12T19:25:46.654Z,98643.87
2017-09-12T19:28:12.847Z,98645.14
2017-09-12T19:30:39.110Z,98652.33
2017-09-12T19:33:05.352Z,98653.25
2017-09-12T19:35:31.591Z,98650.24
2017-09-12T19:37:57.791Z,98649.25
2017-09-12T19:40:24.025Z,98648.23
2017-09-12T19:42:50.266Z,98656.27
2017-09-12T19:45:16.500Z,98665.31
2017-09-12T19:47:42.738Z,98671.19
2017-09-12T19:50:08.923Z,98669.77
2017-09-12T19:52:35.281Z,98676.61
2017-09-12T19:55:01.511Z,98679.52
2017-09-12T19:57:27.743Z,98690.97
2017-09-12T19:59:53.987Z,98690.77
2017-09-12T20:02:20.203Z,98689.22
2017-09-12T20:04:46.419Z,98695.91
2017-09-12T20:07:12.680Z,98701.09
2017-09-12T20:09:38.894Z,98701.94
2017-09-12T20:12:05.149Z,98704.82
2017-09-12T20:14:31.346Z,98712.01
2017-09-12T20:16:57.587Z,98714.55
2017-09-12T20:19:23.823Z,98719.34
2017-09-12T20:21:50.045Z,98725.25
2017-09-12T20:24:16.279Z,98722.81
2017-09-12T20:26:42.515Z,98726.19
2017-09-12T20:29:08.727Z,98724.78
2017-09-12T20:31:34.952Z,98727.09
2017-09-12T20:34:01.188Z,98730.13
2017-09-12T20:36:27.413Z,98736.36
2017-09-12T20:38:53.634Z,98741.41
2017-09-12T20:41:19.915Z,98743.70
2017-09-12T20:43:46.102Z,98740.30
2017-09-12T20:46:12.342Z,98752.24
2017-09-12T20:48:38.593Z,98748.23
2017-09-12T20:51:04.805Z,98750.02
2017-09-12T20:53:31.033Z,98745.87
2017-09-12T20:55:57.265Z,98749.48
2017-09-12T20:58:23.483Z,98749.83
2017-09-12T21:00:49.717Z,98754.17
2017-09-12T21:03:15.936Z,98758.61
2017-09-12T21:05:42.170Z,98762.84
2017-09-12T21:08:09.061Z,98765.61
2017-09-12T21:10:35.356Z,98764.77
2017-09-12T21:13:01.579Z,98767.04
2017-09-12T21:15:27.797Z,98769.84
2017-09-12T21:17:54.046Z,98776.77
2017-09-12T21:20:20.262Z,98781.23
2017-09-12T21:22:46.510Z,98789.09
2017-09-12T21:25:12.724Z,98787.13
2017-09-12T21:27:38.952Z,98794.55
2017-09-12T21:30:05.195Z,98798.49
2017-09-12T21:32:31.417Z,98797.19
2017-09-12T21:34:57.642Z,98801.45
2017-09-12T21:37:23.901Z,98803.77
2017-09-12T21:39:50.114Z,98806.17
2017-09-12T21:42:16.337Z,98810.50
2017-09-12T21:44:42.551Z,98812.84
2017-09-12T21:47:08.785Z,98808.58
2017-09-12T21:49:35.006Z,98811.13
2017-09-12T21:52:01.262Z,98805.36
2017-09-12T21:54:27.471Z,98810.84
2017-09-12T21:56:53.721Z,98810.42
2017-09-12T21:59:19.926Z,98810.86
2017-09-12T22:01:46.179Z,98816.80
2017-09-12T22:04:12.400Z,98821.91
2017-09-12T22:06:38.640Z,98821.51
2017-09-12T22:09:04.851Z,98827.86
2017-09-12T22:11:31.094Z,98831.09
2017-09-12T22:13:57.338Z,98838.52
2017-09-12T22:16:23.569Z,98838.66
2017-09-12T22:18:49.777Z,98836.76
2017-09-12T22:21:16.012Z,98831.09
2017-09-12T22:23:42.225Z,98833.77
2017-09-12T22:26:08.472Z,98828.15
2017-09-12T22:28:34.700Z,98833.00
2017-09-12T22:31:00.933Z,98841.42
2017-09-12T22:33:27.158Z,98849.67
2017-09-12T22:35:53.378Z,98857.27
2017-09-12T22:38:19.616Z,98850.55
2017-09-12T22:40:45.835Z,98856.58
2017-09-12T22:43:12.080Z,98853.28
2017-09-12T22:45:38.296Z,98858.79
2017-09-12T22:48:04.529Z,98851.16
2017-09-12T22:50:30.759Z,98854.41
2017-09-12T22:52:56.985Z,98857.55
2017-09-12T22:55:23.212Z,98854.80
2017-09-12T22:57:49.461Z,98855.58
2017-09-12T23:00:15.683Z,98860.97
2017-09-12T23:02:41.902Z,98858.58
2017-09-12T23:05:08.147Z,98861.77
2017-09-12T23:07:34.368Z,98861.88
2017-09-12T23:10:00.618Z,98863.48
2017-09-12T23:12:26.824Z,98864.60
2017-09-12T23:14:53.042Z,98862.94
2017-09-12T23:17:19.276Z,98862.09
2017-09-12T23:19:45.520Z,98855.28
2017-09-12T23:22:11.758Z,98864.02
2017-09-12T23:24:37.998Z,98868.27
2017-09-12T23:27:04.228Z,98866.66
2017-09-12T23:29:30.448Z,98862.92
2017-09-12T23:31:56.671Z,98865.80
2017-09-12T23:34:22.899Z,98862.38
2017-09-12T23:36:49.138Z,98864.69
2017-09-12T23:39:15.355Z,98863.38
2017-09-12T23:41:41.585Z,98866.03
2017-09-12T23:44:07.820Z,98867.11
2017-09-12T23:46:34.040Z,98873.73
2017-09-12T23:49:00.285Z,98874.02
2017-09-12T23:51:26.498Z,98870.27
2017-09-12T23:53:52.733Z,98876.66
2017-09-12T23:56:18.965Z,98876.69
2017-09-12T23:58:45.200Z,98873.54
